Time;durP1;ratioP1;P1;durP2;ratioP2;P2;SDS_P1;SDS_P2;PMS_P1;PMS_P2;Temp;Humidity;BMP_temperature;BMP_pressure;BME280_temperature;BME280_humidity;BME280_pressure;Samples;Min_cycle;Max_cycle;Signal;HPM_P1;HPM_P2
2024/03/11 00:00:15;;;;;;;8.73;5.60;;;10.50;76.20;;;;;;5080096;28;20416;-65
2024/03/11 00:02:41;;;;;;;11.10;7.13;;;10.40;76.20;;;;;;5073504;28;20048;-65
2024/03/11 00:05:08;;;;;;;11.10;6.80;;;10.30;76.50;;;;;;5079003;28;20445;-64
2024/03/11 00:07:37;;;;;;;11.10;6.97;;;10.30;76.60;;;;;;5077538;28;20179;-65
2024/03/11 00:10:05;;;;;;;11.73;6.40;;;10.30;76.60;;;;;;5077627;28;20021;-67
2024/03/11 00:12:38;;;;;;;9.95;5.95;;;10.40;76.50;;;;;;5071363;28;20081;-66
2024/03/11 00:15:07;;;;;;;9.70;5.75;;;10.40;76.40;;;;;;5069814;28;20024;-66
2024/03/11 00:17:33;;;;;;;10.70;6.07;;;10.40;76.30;;;;;;5072519;28;20028;-66
2024/03/11 00:19:58;;;;;;;9.77;6.13;;;10.40;76.30;;;;;;5072553;28;20098;-65
2024/03/11 00:22:24;;;;;;;9.43;5.88;;;10.50;76.30;;;;;;5077511;28;20450;-66
2024/03/11 00:24:51;;;;;;;8.00;4.95;;;10.50;76.20;;;;;;5080561;28;20432;-66
2024/03/11 00:27:17;;;;;;;8.32;5.25;;;10.50;76.20;;;;;;5079024;28;20103;-66
2024/03/11 00:29:42;;;;;;;10.32;5.82;;;10.50;76.20;;;;;;5073556;28;20035;-65
2024/03/11 00:32:09;;;;;;;9.20;5.65;;;10.50;76.20;;;;;;5081669;28;20089;-67
2024/03/11 00:34:34;;;;;;;9.00;5.72;;;10.50;76.20;;;;;;5083648;28;20108;-65
2024/03/11 00:37:01;;;;;;;11.13;6.57;;;10.40;76.80;;;;;;5072403;28;20542;-66
2024/03/11 00:39:27;;;;;;;10.68;6.80;;;10.30;76.30;;;;;;5072113;28;20021;-65
2024/03/11 00:41:53;;;;;;;11.98;7.47;;;10.20;76.50;;;;;;5073347;28;20025;-66
2024/03/11 00:44:21;;;;;;;10.90;6.47;;;10.10;76.80;;;;;;5071476;28;21566;-66
2024/03/11 00:46:49;;;;;;;9.20;5.70;;;10.20;76.90;;;;;;5071331;28;20056;-66
2024/03/11 00:49:15;;;;;;;10.77;6.50;;;10.20;77.00;;;;;;5075424;28;20058;-67
2024/03/11 00:51:41;;;;;;;10.50;6.45;;;10.20;77.00;;;;;;5071857;28;20055;-66
2024/03/11 00:54:07;;;;;;;9.93;6.05;;;10.10;77.00;;;;;;5074031;28;20020;-66
2024/03/11 00:56:32;;;;;;;9.57;6.10;;;10.20;77.00;;;;;;5074829;28;20028;-65
2024/03/11 00:58:59;;;;;;;8.30;5.25;;;10.20;76.90;;;;;;5072104;28;20054;-65
2024/03/11 01:01:25;;;;;;;9.98;6.32;;;10.20;76.80;;;;;;5071246;28;20046;-66
2024/03/11 01:03:53;;;;;;;10.85;6.53;;;10.20;76.80;;;;;;5075818;28;20597;-65
2024/03/11 01:06:19;;;;;;;10.07;6.18;;;10.20;76.70;;;;;;5074514;28;20107;-65
2024/03/11 01:08:45;;;;;;;11.43;6.65;;;10.20;76.70;;;;;;5068208;28;20074;-66
2024/03/11 01:11:11;;;;;;;8.95;5.93;;;10.20;76.60;;;;;;5073143;28;20027;-66
2024/03/11 01:13:37;;;;;;;11.05;6.75;;;10.20;76.60;;;;;;5078421;28;20080;-67
2024/03/11 01:16:03;;;;;;;11.15;6.90;;;10.20;76.80;;;;;;5072962;28;20033;-65
2024/03/11 01:18:28;;;;;;;9.70;5.88;;;10.20;77.00;;;;;;5076226;28;20036;-69
2024/03/11 01:20:54;;;;;;;10.45;5.97;;;10.20;77.00;;;;;;5069425;28;20021;-66
2024/03/11 01:23:20;;;;;;;10.65;5.95;;;10.20;76.90;;;;;;5072042;28;20390;-65
2024/03/11 01:25:46;;;;;;;9.77;6.10;;;10.20;76.80;;;;;;5071354;28;20036;-67
2024/03/11 01:28:12;;;;;;;9.80;6.28;;;10.30;76.80;;;;;;5079532;28;20024;-65
2024/03/11 01:30:38;;;;;;;10.07;5.97;;;10.30;76.70;;;;;;5079854;28;20100;-65
2024/03/11 01:33:05;;;;;;;9.20;5.65;;;10.30;76.60;;;;;;5080147;28;20028;-66
2024/03/11 01:35:31;;;;;;;8.95;4.90;;;10.30;76.60;;;;;;5072761;28;20021;-66
2024/03/11 01:37:57;;;;;;;15.07;7.80;;;10.30;76.60;;;;;;5074685;28;20483;-67
2024/03/11 01:40:23;;;;;;;11.73;6.60;;;10.20;76.70;;;;;;5077695;28;20036;-66
2024/03/11 01:42:50;;;;;;;10.25;6.43;;;10.20;76.90;;;;;;5075459;28;20028;-67
2024/03/11 01:45:16;;;;;;;9.90;5.75;;;10.20;77.00;;;;;;5076009;28;20398;-68
2024/03/11 01:47:42;;;;;;;12.75;7.60;;;10.20;76.90;;;;;;5068197;28;20028;-66
2024/03/11 01:50:09;;;;;;;12.10;7.68;;;10.10;77.10;;;;;;5081722;28;20119;-66
2024/03/11 01:52:37;;;;;;;11.13;6.68;;;10.10;77.40;;;;;;5076629;28;20019;-66
2024/03/11 01:55:05;;;;;;;10.32;6.68;;;10.10;77.50;;;;;;5067837;28;20032;-65
2024/03/11 01:57:35;;;;;;;9.30;5.60;;;10.10;77.40;;;;;;5070255;28;20070;-66
2024/03/11 02:00:01;;;;;;;9.90;5.90;;;10.10;77.40;;;;;;5070070;28;20031;-67
2024/03/11 02:02:29;;;;;;;9.40;5.93;;;10.20;77.30;;;;;;5074596;28;20024;-65
2024/03/11 02:04:55;;;;;;;11.20;6.68;;;10.20;77.20;;;;;;5067145;28;20082;-64
2024/03/11 02:07:22;;;;;;;10.43;6.85;;;10.10;77.40;;;;;;5072486;28;20050;-65
2024/03/11 02:09:47;;;;;;;10.95;6.95;;;10.10;77.50;;;;;;5066275;28;20025;-68
2024/03/11 02:12:14;;;;;;;11.93;7.43;;;10.10;77.50;;;;;;5071459;28;20036;-67
2024/03/11 02:14:43;;;;;;;11.60;6.95;;;10.10;77.60;;;;;;5069090;28;20024;-65
2024/03/11 02:17:09;;;;;;;11.57;7.07;;;10.10;77.60;;;;;;5071464;28;20383;-64
2024/03/11 02:19:34;;;;;;;9.98;6.18;;;10.10;77.60;;;;;;5082209;28;20028;-65
2024/03/11 02:22:03;;;;;;;10.45;6.40;;;10.10;77.60;;;;;;5069149;28;20035;-67
2024/03/11 02:24:29;;;;;;;10.57;6.50;;;10.10;77.50;;;;;;5073315;28;20093;-65
2024/03/11 02:26:55;;;;;;;10.32;6.15;;;10.20;77.50;;;;;;5071209;28;20025;-66
2024/03/11 02:29:20;;;;;;;12.15;7.88;;;10.20;77.40;;;;;;5070029;28;20502;-66
2024/03/11 02:31:50;;;;;;;14.38;8.70;;;10.10;77.50;;;;;;5070677;28;20067;-66
2024/03/11 02:34:16;;;;;;;10.57;6.85;;;10.00;77.70;;;;;;5073863;28;20047;-66
2024/03/11 02:36:46;;;;;;;12.57;7.75;;;10.00;77.80;;;;;;5073473;28;20067;-64
2024/03/11 02:39:14;;;;;;;10.27;6.50;;;9.90;78.00;;;;;;5073752;28;20024;-65
2024/03/11 02:41:41;;;;;;;11.90;7.47;;;9.90;78.30;;;;;;5074470;28;20105;-65
2024/03/11 02:44:08;;;;;;;10.73;6.45;;;9.80;78.40;;;;;;5070112;28;20028;-68
2024/03/11 02:46:34;;;;;;;11.07;6.22;;;9.80;78.40;;;;;;5066910;28;20082;-64
2024/03/11 02:49:00;;;;;;;10.38;6.40;;;9.90;78.40;;;;;;5071800;28;20024;-65
2024/03/11 02:51:25;;;;;;;8.75;5.32;;;9.90;78.20;;;;;;5070979;28;20027;-65
2024/03/11 02:53:51;;;;;;;11.43;6.72;;;9.90;78.10;;;;;;5073070;28;20096;-67
2024/03/11 02:56:17;;;;;;;10.23;6.65;;;9.90;78.20;;;;;;5077036;28;20081;-64
2024/03/11 02:58:43;;;;;;;9.00;5.75;;;9.90;78.20;;;;;;5074124;28;20020;-66
2024/03/11 03:01:09;;;;;;;10.18;5.45;;;9.90;78.20;;;;;;5077639;28;20049;-65
2024/03/11 03:03:35;;;;;;;8.98;5.68;;;10.00;78.30;;;;;;5072873;28;20692;-65
2024/03/11 03:06:04;;;;;;;8.77;5.15;;;10.00;78.30;;;;;;5078076;28;20025;-65
2024/03/11 03:08:29;;;;;;;10.25;6.07;;;10.00;78.30;;;;;;5072807;28;20107;-64
2024/03/11 03:11:01;;;;;;;10.85;5.68;;;10.00;78.40;;;;;;5074959;28;20103;-66
2024/03/11 03:13:29;;;;;;;8.50;5.05;;;9.90;78.40;;;;;;5074421;28;20065;-65
2024/03/11 03:15:55;;;;;;;10.88;6.57;;;9.90;78.50;;;;;;5078922;28;20027;-66
2024/03/11 03:18:21;;;;;;;10.45;6.47;;;9.90;78.60;;;;;;5077860;28;20561;-66
2024/03/11 03:20:47;;;;;;;12.80;7.15;;;9.80;78.70;;;;;;5074938;28;20033;-64
2024/03/11 03:23:13;;;;;;;10.38;6.65;;;9.80;78.90;;;;;;5070541;28;20032;-64
2024/03/11 03:25:38;;;;;;;11.77;7.00;;;9.80;79.00;;;;;;5072501;28;20040;-66
2024/03/11 03:28:05;;;;;;;13.30;8.77;;;9.70;79.20;;;;;;5076191;28;20024;-66
2024/03/11 03:30:32;;;;;;;11.32;7.05;;;9.60;79.60;;;;;;5074821;28;20182;-64
2024/03/11 03:32:58;;;;;;;11.55;6.88;;;9.60;79.60;;;;;;5076484;28;20025;-64
2024/03/11 03:35:25;;;;;;;10.60;6.60;;;9.60;79.70;;;;;;5069404;28;20096;-64
2024/03/11 03:37:51;;;;;;;11.90;7.10;;;9.60;79.80;;;;;;5076950;28;20133;-66
2024/03/11 03:40:17;;;;;;;10.50;5.95;;;9.70;79.70;;;;;;5077068;28;20024;-66
2024/03/11 03:42:44;;;;;;;10.27;6.32;;;9.70;79.60;;;;;;5082722;28;20229;-64
2024/03/11 03:45:10;;;;;;;9.23;5.80;;;9.80;79.40;;;;;;5078584;28;20028;-66
2024/03/11 03:47:36;;;;;;;9.20;5.82;;;9.90;79.30;;;;;;5071163;28;20054;-64
2024/03/11 03:50:03;;;;;;;9.00;5.80;;;9.90;79.10;;;;;;5076209;28;20066;-65
2024/03/11 03:52:31;;;;;;;8.70;5.38;;;10.00;79.10;;;;;;5078590;28;20025;-65
2024/03/11 03:54:57;;;;;;;8.70;5.57;;;10.00;79.00;;;;;;5082418;28;20027;-64
2024/03/11 03:57:22;;;;;;;8.43;5.20;;;10.00;78.90;;;;;;5085920;28;20032;-64
2024/03/11 03:59:48;;;;;;;9.75;6.15;;;10.00;78.80;;;;;;5078295;28;20032;-68
2024/03/11 04:02:14;;;;;;;9.57;6.20;;;10.00;78.80;;;;;;5073632;28;20016;-68
2024/03/11 04:04:41;;;;;;;10.15;6.07;;;10.00;78.80;;;;;;5077024;28;20152;-63
2024/03/11 04:07:07;;;;;;;8.90;5.80;;;9.90;78.90;;;;;;5079561;28;20032;-66
2024/03/11 04:09:32;;;;;;;9.52;5.85;;;9.90;79.10;;;;;;5079794;28;20028;-65
2024/03/11 04:11:58;;;;;;;11.80;6.93;;;9.80;79.10;;;;;;5072630;28;20013;-65
2024/03/11 04:14:23;;;;;;;10.65;6.10;;;9.70;79.10;;;;;;5074567;28;20020;-63
2024/03/11 04:16:49;;;;;;;11.43;6.90;;;9.70;79.30;;;;;;5074936;28;20029;-65
2024/03/11 04:19:17;;;;;;;10.65;6.60;;;9.70;79.30;;;;;;5075097;28;20020;-64
2024/03/11 04:21:43;;;;;;;13.10;7.85;;;9.70;79.50;;;;;;5072802;28;20028;-64
2024/03/11 04:24:11;;;;;;;10.63;6.80;;;9.70;79.60;;;;;;5077395;28;20099;-63
2024/03/11 04:26:38;;;;;;;10.98;7.03;;;9.60;79.60;;;;;;5074260;28;20035;-64
2024/03/11 04:29:05;;;;;;;9.25;6.20;;;9.60;79.70;;;;;;5073248;28;20028;-65
2024/03/11 04:31:32;;;;;;;11.13;6.65;;;9.60;79.80;;;;;;5072524;28;20035;-64
2024/03/11 04:33:58;;;;;;;12.00;6.47;;;9.60;79.80;;;;;;5079478;28;20025;-64
2024/03/11 04:36:24;;;;;;;10.18;6.15;;;9.60;79.80;;;;;;5070016;28;20497;-65
2024/03/11 04:38:50;;;;;;;10.90;7.47;;;9.50;79.80;;;;;;5075123;28;20031;-66
2024/03/11 04:41:15;;;;;;;14.45;8.50;;;9.50;80.00;;;;;;5070675;28;20032;-66
2024/03/11 04:43:41;;;;;;;9.80;5.90;;;9.50;80.00;;;;;;5070063;28;20043;-65
2024/03/11 04:46:09;;;;;;;12.10;7.55;;;9.50;80.80;;;;;;5075312;28;20112;-65
2024/03/11 04:48:36;;;;;;;11.10;6.68;;;9.30;80.40;;;;;;5073509;28;20053;-66
2024/03/11 04:51:04;;;;;;;11.82;7.10;;;9.30;80.60;;;;;;5073603;28;20017;-64
2024/03/11 04:53:30;;;;;;;11.60;7.35;;;9.30;80.60;;;;;;5077085;28;20491;-64
2024/03/11 04:55:56;;;;;;;10.48;6.53;;;9.30;80.70;;;;;;5074179;28;20024;-64
2024/03/11 04:58:21;;;;;;;10.70;6.60;;;9.40;80.80;;;;;;5082081;28;20087;-65
2024/03/11 05:00:47;;;;;;;11.80;7.22;;;9.30;80.90;;;;;;5074542;28;20474;-65
2024/03/11 05:03:13;;;;;;;10.90;6.63;;;9.30;80.80;;;;;;5083117;28;20032;-64
2024/03/11 05:05:40;;;;;;;10.65;6.50;;;9.40;80.80;;;;;;5072961;28;20032;-65
2024/03/11 05:08:06;;;;;;;9.70;6.18;;;9.40;80.70;;;;;;5071915;28;20027;-66
2024/03/11 05:10:32;;;;;;;9.25;5.72;;;9.50;80.70;;;;;;5069461;28;20037;-65
2024/03/11 05:12:58;;;;;;;9.90;6.30;;;9.50;80.60;;;;;;5072718;28;20020;-66
2024/03/11 05:15:28;;;;;;;9.25;5.35;;;9.40;80.60;;;;;;5072188;28;20102;-64
2024/03/11 05:17:54;;;;;;;10.27;6.25;;;9.40;80.70;;;;;;5075852;28;20505;-66
2024/03/11 05:20:19;;;;;;;10.23;6.00;;;9.40;80.90;;;;;;5071644;28;20024;-64
2024/03/11 05:22:49;;;;;;;9.18;5.90;;;9.40;80.90;;;;;;5069056;28;20024;-65
2024/03/11 05:25:14;;;;;;;11.32;6.80;;;9.40;81.00;;;;;;5072835;28;20024;-65
2024/03/11 05:27:41;;;;;;;9.13;5.63;;;9.40;81.00;;;;;;5066547;28;20391;-66
2024/03/11 05:30:07;;;;;;;9.02;5.55;;;9.40;81.20;;;;;;5071722;28;20051;-65
2024/03/11 05:32:33;;;;;;;12.35;7.38;;;9.40;81.40;;;;;;5070549;28;20043;-65
2024/03/11 05:34:59;;;;;;;10.68;6.47;;;9.30;81.40;;;;;;5072371;28;20478;-66
2024/03/11 05:37:26;;;;;;;13.13;7.85;;;9.40;81.50;;;;;;5076318;28;20050;-66
2024/03/11 05:39:55;;;;;;;12.38;7.43;;;9.30;81.80;;;;;;5071309;28;20047;-66
2024/03/11 05:42:24;;;;;;;11.65;6.95;;;9.30;81.90;;;;;;5068960;28;20115;-65
2024/03/11 05:44:50;;;;;;;11.27;6.70;;;9.20;81.80;;;;;;5066161;28;20020;-65
2024/03/11 05:47:15;;;;;;;11.68;7.32;;;9.30;81.90;;;;;;5072058;28;20039;-66
2024/03/11 05:49:41;;;;;;;12.38;6.63;;;9.30;81.90;;;;;;5076450;28;20435;-64
2024/03/11 05:52:09;;;;;;;10.63;6.45;;;9.30;81.80;;;;;;5072839;28;20620;-64
2024/03/11 05:54:38;;;;;;;12.77;7.40;;;9.20;81.90;;;;;;5077952;28;20016;-65
2024/03/11 05:57:05;;;;;;;9.93;6.28;;;9.20;82.10;;;;;;5074269;28;20021;-66
2024/03/11 05:59:31;;;;;;;9.65;5.88;;;9.20;82.20;;;;;;5070363;28;20024;-65
2024/03/11 06:01:59;;;;;;;9.38;5.78;;;9.20;82.10;;;;;;5072024;28;20078;-64
2024/03/11 06:04:25;;;;;;;9.27;6.03;;;9.30;82.20;;;;;;5079815;28;20089;-65
2024/03/11 06:06:52;;;;;;;8.55;5.03;;;9.20;82.20;;;;;;5072636;28;20020;-64
2024/03/11 06:09:18;;;;;;;10.30;6.57;;;9.30;82.30;;;;;;5076667;28;20112;-65
2024/03/11 06:11:49;;;;;;;9.75;6.13;;;9.20;82.50;;;;;;5066623;28;20099;-66
2024/03/11 06:14:15;;;;;;;9.60;6.32;;;9.10;82.70;;;;;;5073896;28;20020;-65
2024/03/11 06:16:42;;;;;;;9.35;5.30;;;9.10;82.70;;;;;;5076014;28;20538;-66
2024/03/11 06:19:12;;;;;;;10.48;6.22;;;9.20;82.80;;;;;;5072194;28;20036;-64
2024/03/11 06:21:43;;;;;;;9.75;6.28;;;9.20;82.90;;;;;;5064359;28;20032;-64
2024/03/11 06:24:10;;;;;;;11.23;6.35;;;9.20;82.90;;;;;;5072281;28;20449;-66
2024/03/11 06:26:37;;;;;;;10.23;6.18;;;9.20;82.80;;;;;;5064753;28;20024;-65
2024/03/11 06:29:03;;;;;;;10.30;6.30;;;9.20;82.90;;;;;;5069215;28;20021;-66
2024/03/11 06:31:29;;;;;;;8.20;4.95;;;9.30;83.00;;;;;;5072952;28;20091;-66
2024/03/11 06:33:58;;;;;;;8.85;5.13;;;9.40;82.80;;;;;;5068553;28;20040;-64
2024/03/11 06:36:23;;;;;;;9.48;5.60;;;9.40;82.70;;;;;;5073556;28;20069;-67
2024/03/11 06:38:50;;;;;;;9.40;5.35;;;9.40;82.50;;;;;;5071914;28;20024;-65
2024/03/11 06:41:17;;;;;;;9.30;5.50;;;9.40;82.40;;;;;;5079442;28;20028;-65
2024/03/11 06:43:44;;;;;;;8.15;4.72;;;9.50;82.40;;;;;;5069235;28;20035;-65
2024/03/11 06:46:10;;;;;;;7.72;4.72;;;9.50;82.30;;;;;;5069419;28;20024;-65
2024/03/11 06:48:36;;;;;;;7.47;5.03;;;9.60;82.30;;;;;;5074119;28;20028;-66
2024/03/11 06:51:04;;;;;;;7.53;5.03;;;9.60;82.20;;;;;;5067728;28;20047;-66
2024/03/11 06:53:30;;;;;;;8.65;5.38;;;9.70;82.20;;;;;;5069213;28;20017;-68
2024/03/11 06:55:55;;;;;;;7.28;4.82;;;9.70;82.10;;;;;;5067059;28;20111;-66
2024/03/11 06:58:22;;;;;;;8.57;5.07;;;9.70;82.00;;;;;;5068439;28;20462;-66
2024/03/11 07:00:47;;;;;;;8.23;5.22;;;9.70;82.00;;;;;;5066475;28;20099;-66
2024/03/11 07:03:15;;;;;;;7.55;4.90;;;9.70;82.00;;;;;;5068128;28;20104;-65
2024/03/11 07:05:40;;;;;;;8.18;5.10;;;9.70;82.10;;;;;;5070159;28;20048;-65
2024/03/11 07:08:06;;;;;;;8.38;5.15;;;9.70;82.20;;;;;;5071444;28;20074;-65
2024/03/11 07:10:32;;;;;;;8.90;5.30;;;9.80;82.30;;;;;;5067590;28;20086;-68
2024/03/11 07:12:59;;;;;;;9.20;5.25;;;9.70;82.10;;;;;;5073288;28;20028;-66
2024/03/11 07:15:25;;;;;;;9.85;5.60;;;9.80;82.20;;;;;;5071745;28;20033;-66
2024/03/11 07:17:50;;;;;;;9.63;5.97;;;9.70;82.20;;;;;;5069451;28;20028;-68
2024/03/11 07:20:17;;;;;;;8.38;5.00;;;9.70;82.20;;;;;;5070462;28;20374;-66
2024/03/11 07:22:43;;;;;;;9.07;5.43;;;9.70;82.30;;;;;;5070741;28;20025;-65
2024/03/11 07:25:19;;;;;;;10.15;6.45;;;9.70;82.40;;;;;;5071629;28;20050;-65
2024/03/11 07:27:47;;;;;;;9.15;5.95;;;9.60;82.40;;;;;;5076415;28;20036;-65
2024/03/11 07:30:14;;;;;;;9.20;6.05;;;9.60;82.50;;;;;;5074828;28;20069;-65
2024/03/11 07:32:42;;;;;;;9.32;5.60;;;9.60;82.50;;;;;;5075622;28;20033;-65
2024/03/11 07:35:08;;;;;;;8.20;5.13;;;9.60;82.50;;;;;;5067623;28;20498;-65
2024/03/11 07:37:36;;;;;;;9.00;5.60;;;9.50;82.50;;;;;;5080810;28;20043;-65
2024/03/11 07:40:10;;;;;;;10.32;6.50;;;9.60;82.60;;;;;;5066571;28;20378;-64
2024/03/11 07:42:37;;;;;;;9.75;5.90;;;9.50;82.50;;;;;;5073991;28;20114;-67
2024/03/11 07:45:03;;;;;;;9.02;5.57;;;9.50;83.30;;;;;;5076295;28;20021;-66
2024/03/11 07:47:28;;;;;;;13.50;7.75;;;9.50;83.30;;;;;;5088892;28;20668;-66
2024/03/11 07:49:58;;;;;;;11.50;7.22;;;9.50;82.70;;;;;;5086068;28;20028;-65
2024/03/11 07:52:24;;;;;;;11.30;6.85;;;9.50;82.80;;;;;;5068545;28;21354;-65
2024/03/11 07:54:50;;;;;;;10.38;6.05;;;9.40;83.00;;;;;;5073969;28;20065;-67
2024/03/11 07:57:16;;;;;;;9.82;5.93;;;9.40;83.10;;;;;;5087216;28;20024;-66
2024/03/11 07:59:41;;;;;;;8.80;5.32;;;9.30;83.20;;;;;;5074873;28;20040;-65
2024/03/11 08:02:08;;;;;;;9.15;5.68;;;9.40;83.20;;;;;;5066678;28;20059;-66
2024/03/11 08:04:33;;;;;;;10.00;5.90;;;9.40;83.20;;;;;;5079350;28;20024;-65
2024/03/11 08:06:59;;;;;;;9.85;5.50;;;9.40;83.10;;;;;;5070223;28;20025;-70
2024/03/11 08:09:27;;;;;;;9.10;5.78;;;9.40;83.20;;;;;;5076027;28;20048;-68
2024/03/11 08:11:54;;;;;;;10.48;6.35;;;9.40;83.20;;;;;;5074210;28;20030;-68
2024/03/11 08:14:20;;;;;;;9.30;5.47;;;9.40;83.30;;;;;;5078710;28;20024;-67
2024/03/11 08:16:45;;;;;;;10.32;6.70;;;9.40;83.20;;;;;;5086473;28;20035;-67
2024/03/11 08:19:12;;;;;;;11.55;7.22;;;9.40;83.30;;;;;;5083269;28;20078;-66
2024/03/11 08:21:40;;;;;;;10.93;6.55;;;9.30;83.30;;;;;;5074704;28;20016;-66
2024/03/11 08:24:06;;;;;;;9.80;6.18;;;9.30;83.40;;;;;;5073391;28;20017;-64
2024/03/11 08:26:33;;;;;;;12.10;7.40;;;9.40;83.40;;;;;;5074272;28;20107;-64
2024/03/11 08:28:58;;;;;;;11.27;6.55;;;9.30;83.50;;;;;;5080234;28;20050;-64
2024/03/11 08:31:25;;;;;;;10.50;6.63;;;9.30;83.40;;;;;;5084247;28;20031;-64
2024/03/11 08:33:51;;;;;;;10.75;6.70;;;9.40;83.60;;;;;;5075317;28;20020;-64
2024/03/11 08:36:17;;;;;;;9.68;6.03;;;9.30;83.70;;;;;;5078532;28;20024;-64
2024/03/11 08:38:43;;;;;;;13.40;6.78;;;9.30;83.80;;;;;;5071573;28;20031;-64
2024/03/11 08:41:09;;;;;;;11.40;6.60;;;9.30;83.90;;;;;;5074349;28;20099;-64
2024/03/11 08:43:34;;;;;;;10.63;6.60;;;9.30;83.90;;;;;;5079931;28;20514;-64
2024/03/11 08:46:00;;;;;;;12.10;7.00;;;9.40;83.90;;;;;;5076218;28;20029;-66
2024/03/11 08:48:26;;;;;;;10.20;6.30;;;9.40;83.90;;;;;;5068872;28;20032;-65
2024/03/11 08:50:52;;;;;;;10.23;5.63;;;9.40;83.90;;;;;;5071571;28;20021;-65
2024/03/11 08:53:19;;;;;;;9.98;6.03;;;9.40;83.80;;;;;;5078426;28;20031;-66
2024/03/11 08:55:44;;;;;;;13.00;6.93;;;9.40;84.40;;;;;;5082510;28;20020;-66
2024/03/11 08:58:12;;;;;;;11.57;6.78;;;9.40;83.80;;;;;;5074346;28;20025;-65
2024/03/11 09:00:38;;;;;;;9.40;5.65;;;9.40;83.90;;;;;;5070376;28;20013;-63
2024/03/11 09:03:04;;;;;;;11.60;6.50;;;9.40;83.90;;;;;;5071969;28;20025;-66
2024/03/11 09:05:33;;;;;;;9.48;5.15;;;9.40;84.00;;;;;;5071099;28;20017;-66
2024/03/11 09:08:04;;;;;;;12.32;7.28;;;9.40;84.00;;;;;;5070448;28;20024;-66
2024/03/11 09:10:30;;;;;;;11.55;6.82;;;9.30;84.20;;;;;;5072318;28;20117;-66
2024/03/11 09:12:58;;;;;;;11.00;6.28;;;9.40;84.20;;;;;;5080391;28;20102;-65
2024/03/11 09:15:24;;;;;;;10.27;6.57;;;9.40;84.20;;;;;;5077815;28;20033;-66
2024/03/11 09:17:51;;;;;;;10.63;5.95;;;9.40;84.10;;;;;;5072661;28;20040;-66
2024/03/11 09:20:19;;;;;;;12.52;7.15;;;9.40;84.10;;;;;;5084338;28;20059;-66
2024/03/11 09:22:50;;;;;;;12.50;6.47;;;9.40;84.00;;;;;;5073097;28;20052;-65
2024/03/11 09:25:24;;;;;;;10.73;5.90;;;9.40;84.10;;;;;;5081794;28;20039;-65
2024/03/11 09:28:02;;;;;;;11.48;6.45;;;9.50;84.20;;;;;;5071255;28;20494;-65
2024/03/11 09:30:29;;;;;;;10.63;5.97;;;9.50;84.10;;;;;;5068175;28;20075;-66
2024/03/11 09:32:55;;;;;;;10.93;5.75;;;9.50;84.10;;;;;;5080030;28;20012;-65
2024/03/11 09:35:21;;;;;;;11.60;6.55;;;9.50;83.90;;;;;;5076614;28;20147;-66
2024/03/11 09:37:51;;;;;;;10.95;6.75;;;9.50;83.90;;;;;;5079200;28;20031;-67
2024/03/11 09:40:17;;;;;;;11.60;6.50;;;9.50;84.00;;;;;;5078271;28;20021;-66
2024/03/11 09:42:50;;;;;;;10.10;5.50;;;9.50;84.10;;;;;;5074215;28;20052;-66
2024/03/11 09:45:17;;;;;;;10.98;6.30;;;9.50;84.20;;;;;;5068030;28;20026;-65
2024/03/11 09:47:51;;;;;;;10.30;6.25;;;9.50;84.30;;;;;;5072503;28;20028;-66
2024/03/11 09:50:26;;;;;;;10.95;5.97;;;9.50;84.30;;;;;;5070286;28;20021;-65
2024/03/11 09:53:18;;;;;;;9.07;5.55;;;9.50;84.30;;;;;;5077732;28;20028;-66
2024/03/11 09:55:44;;;;;;;11.27;6.38;;;9.50;84.30;;;;;;5073595;28;20035;-65
2024/03/11 09:58:15;;;;;;;12.95;6.90;;;9.50;84.10;;;;;;5078864;28;20063;-65
2024/03/11 10:01:07;;;;;;;12.33;6.80;;;9.50;84.30;;;;;;5073294;28;20028;-66
2024/03/11 10:03:33;;;;;;;11.93;7.03;;;9.50;84.30;;;;;;5070715;28;20371;-65
2024/03/11 10:06:03;;;;;;;10.10;6.15;;;9.40;84.30;;;;;;5070388;28;20033;-65
2024/03/11 10:08:34;;;;;;;11.43;6.20;;;9.50;84.40;;;;;;5065390;28;20352;-66
2024/03/11 10:11:14;;;;;;;12.32;6.25;;;9.50;84.40;;;;;;5067463;28;20044;-65
2024/03/11 10:13:40;;;;;;;9.90;5.85;;;9.60;84.40;;;;;;5067277;28;20024;-67
2024/03/11 10:16:32;;;;;;;11.52;6.25;;;9.60;84.40;;;;;;5067390;28;20036;-66
2024/03/11 10:19:02;;;;;;;;;;;9.60;84.40;;;;;;5065342;28;20157;-66
2024/03/11 10:21:29;;;;;;;10.73;5.78;;;9.60;84.30;;;;;;5068330;28;20235;-64
2024/03/11 10:23:59;;;;;;;9.27;5.57;;;9.60;84.30;;;;;;5075697;28;20475;-66
2024/03/11 10:26:27;;;;;;;8.85;5.03;;;9.60;84.40;;;;;;5067949;28;20081;-65
2024/03/11 10:28:56;;;;;;;9.07;5.43;;;9.60;84.40;;;;;;5065035;28;20021;-65
2024/03/11 10:31:24;;;;;;;10.85;6.30;;;9.60;84.30;;;;;;5102110;28;20023;-66
2024/03/11 10:33:53;;;;;;;9.57;5.55;;;9.60;84.30;;;;;;5073765;28;20042;-66
2024/03/11 10:36:25;;;;;;;11.02;6.15;;;9.60;84.30;;;;;;5067198;28;20104;-66
2024/03/11 10:38:54;;;;;;;10.95;5.63;;;9.60;84.40;;;;;;5072745;28;20397;-66
2024/03/11 10:41:21;;;;;;;10.05;5.75;;;9.60;84.40;;;;;;5068506;28;20024;-66
2024/03/11 10:43:54;;;;;;;9.25;5.53;;;9.60;84.30;;;;;;5072286;28;20111;-66
2024/03/11 10:46:20;;;;;;;9.48;4.97;;;9.60;84.50;;;;;;5067499;28;20067;-65
2024/03/11 10:48:48;;;;;;;8.02;5.07;;;9.60;84.50;;;;;;5067914;28;20166;-65
2024/03/11 10:51:30;;;;;;;9.25;5.10;;;9.60;84.40;;;;;;5070433;28;20111;-66
2024/03/11 10:53:58;;;;;;;9.88;5.63;;;9.70;84.60;;;;;;5071127;28;20020;-66
2024/03/11 10:56:24;;;;;;;8.77;5.07;;;9.70;84.60;;;;;;5074626;28;20032;-65
2024/03/11 10:59:03;;;;;;;8.63;5.03;;;9.70;84.50;;;;;;5072531;28;20025;-65
2024/03/11 11:01:33;;;;;;;10.02;5.63;;;9.70;84.50;;;;;;5075117;28;20024;-66
2024/03/11 11:04:14;;;;;;;9.93;5.63;;;9.70;84.50;;;;;;5078356;28;20040;-67
2024/03/11 11:06:51;;;;;;;10.70;5.17;;;9.70;84.50;;;;;;5063160;28;20023;-66
2024/03/11 11:09:19;;;;;;;9.05;5.30;;;9.80;84.60;;;;;;5067561;28;20466;-66
2024/03/11 11:11:53;;;;;;;10.02;5.28;;;9.70;84.50;;;;;;5069338;28;20019;-66
2024/03/11 11:14:19;;;;;;;10.80;6.25;;;9.80;84.60;;;;;;5075281;28;20028;-66
2024/03/11 11:16:45;;;;;;;10.90;6.35;;;9.80;84.60;;;;;;5067106;28;20110;-67
2024/03/11 11:19:14;;;;;;;11.93;6.30;;;9.70;84.60;;;;;;5074815;28;20025;-66
2024/03/11 11:21:43;;;;;;;10.27;6.40;;;9.70;84.60;;;;;;5082618;28;20058;-66
2024/03/11 11:24:29;;;;;;;10.70;6.18;;;9.70;84.60;;;;;;5081957;28;20190;-67
2024/03/11 11:26:56;;;;;;;11.13;5.93;;;9.80;84.60;;;;;;5082462;28;20617;-67
2024/03/11 11:29:24;;;;;;;10.60;6.68;;;9.70;84.50;;;;;;5067779;28;20445;-65
2024/03/11 11:32:04;;;;;;;9.93;5.90;;;9.80;84.60;;;;;;5075829;28;20017;-65
2024/03/11 11:34:44;;;;;;;12.18;6.88;;;9.80;84.70;;;;;;5076041;28;20028;-66
2024/03/11 11:37:30;;;;;;;12.10;5.93;;;9.80;84.70;;;;;;5076029;28;20033;-66
2024/03/11 11:39:56;;;;;;;10.50;6.13;;;9.70;84.60;;;;;;5088937;28;20119;-65
2024/03/11 11:42:40;;;;;;;10.43;5.97;;;9.70;84.70;;;;;;5074271;28;20127;-66
2024/03/11 11:45:11;;;;;;;9.63;5.68;;;9.70;84.80;;;;;;5080787;28;20082;-66
2024/03/11 11:47:37;;;;;;;9.05;5.07;;;9.80;84.90;;;;;;5075650;28;20067;-66
2024/03/11 11:50:23;;;;;;;8.57;4.82;;;9.70;84.90;;;;;;5075273;28;20020;-66
2024/03/11 11:53:02;;;;;;;8.55;4.85;;;9.70;84.90;;;;;;5063369;28;20099;-67
2024/03/11 11:55:28;;;;;;;8.60;4.82;;;9.80;85.00;;;;;;5072749;28;20028;-66
2024/03/11 11:58:07;;;;;;;8.48;4.85;;;9.80;85.00;;;;;;5068560;28;20078;-66
2024/03/11 12:00:45;;;;;;;8.52;5.22;;;9.80;85.00;;;;;;5069202;28;20035;-66
2024/03/11 12:03:34;;;;;;;9.32;5.38;;;9.80;84.90;;;;;;5079895;28;20029;-66
2024/03/11 12:06:20;;;;;;;11.48;6.97;;;9.80;84.90;;;;;;5073511;28;20090;-65
2024/03/11 12:08:51;;;;;;;10.30;5.93;;;9.80;84.90;;;;;;5068411;28;20029;-65
2024/03/11 12:11:19;;;;;;;10.73;6.25;;;9.80;85.00;;;;;;5072565;28;20748;-67
2024/03/11 12:13:46;;;;;;;11.55;6.43;;;9.80;85.00;;;;;;5070823;28;20058;-66
2024/03/11 12:16:27;;;;;;;9.50;6.20;;;9.80;85.10;;;;;;5066922;28;20060;-65
2024/03/11 12:19:06;;;;;;;11.40;5.97;;;9.80;85.10;;;;;;5069854;28;20074;-66
2024/03/11 12:21:38;;;;;;;7.97;4.88;;;9.80;85.20;;;;;;5074800;28;20024;-67
2024/03/11 12:24:10;;;;;;;8.57;5.22;;;9.80;85.20;;;;;;5082027;28;20036;-66
2024/03/11 12:26:36;;;;;;;10.90;6.53;;;9.90;85.20;;;;;;5076107;28;20034;-67
2024/03/11 12:29:08;;;;;;;8.90;5.32;;;9.80;85.20;;;;;;5073454;28;20082;-63
2024/03/11 12:31:36;;;;;;;10.30;5.60;;;9.90;85.30;;;;;;5072007;28;20020;-67
2024/03/11 12:34:13;;;;;;;9.60;5.20;;;9.90;85.20;;;;;;5082447;28;20032;-66
2024/03/11 12:36:47;;;;;;;8.52;4.95;;;9.90;85.10;;;;;;5067794;28;20037;-66
2024/03/11 12:39:26;;;;;;;8.48;5.10;;;10.00;85.10;;;;;;5070341;28;20471;-66
2024/03/11 12:41:56;;;;;;;7.93;4.68;;;10.00;85.10;;;;;;5072305;28;20573;-67
2024/03/11 12:44:24;;;;;;;9.02;5.35;;;10.00;85.10;;;;;;5075679;28;20020;-66
2024/03/11 12:46:53;;;;;;;9.52;5.40;;;10.00;85.10;;;;;;5070434;28;20040;-65
2024/03/11 12:49:20;;;;;;;8.35;4.97;;;10.00;85.20;;;;;;5072432;28;20557;-65
2024/03/11 12:51:47;;;;;;;9.25;5.28;;;10.00;85.20;;;;;;5071315;28;20103;-65